sensor_id;sensor_type;location;lat;lon;timestamp;temperature;humidity
58339;DHT22;48278;52.704;6.536;2022-09-29T00:00:29;6.80;99.90
58339;DHT22;48278;52.704;6.536;2022-09-29T00:02:55;6.80;99.90
58339;DHT22;48278;52.704;6.536;2022-09-29T00:05:21;6.70;99.90
58339;DHT22;48278;52.704;6.536;2022-09-29T00:07:47;6.70;99.90
58339;DHT22;48278;52.704;6.536;2022-09-29T00:10:12;6.70;99.90
58339;DHT22;48278;52.704;6.536;2022-09-29T00:12:39;6.70;99.90
58339;DHT22;48278;52.704;6.536;2022-09-29T00:15:06;6.60;99.90
58339;DHT22;48278;52.704;6.536;2022-09-29T00:17:32;6.60;99.90
58339;DHT22;48278;52.704;6.536;2022-09-29T00:19:57;6.60;99.90
58339;DHT22;48278;52.704;6.536;2022-09-29T00:22:23;6.60;99.90
58339;DHT22;48278;52.704;6.536;2022-09-29T00:24:49;6.60;99.90
58339;DHT22;48278;52.704;6.536;2022-09-29T00:27:16;6.60;99.90
58339;DHT22;48278;52.704;6.536;2022-09-29T00:29:42;6.60;99.90
58339;DHT22;48278;52.704;6.536;2022-09-29T00:32:08;6.60;99.90
58339;DHT22;48278;52.704;6.536;2022-09-29T00:34:34;6.50;99.90
58339;DHT22;48278;52.704;6.536;2022-09-29T00:37:00;6.50;99.90
58339;DHT22;48278;52.704;6.536;2022-09-29T00:39:25;6.50;99.90
58339;DHT22;48278;52.704;6.536;2022-09-29T00:41:51;6.40;99.90
58339;DHT22;48278;52.704;6.536;2022-09-29T00:46:50;6.40;99.90
58339;DHT22;48278;52.704;6.536;2022-09-29T00:49:23;6.40;99.90
58339;DHT22;48278;52.704;6.536;2022-09-29T00:51:58;6.30;99.90
58339;DHT22;48278;52.704;6.536;2022-09-29T00:54:25;6.30;99.90
58339;DHT22;48278;52.704;6.536;2022-09-29T00:56:56;6.20;99.90
58339;DHT22;48278;52.704;6.536;2022-09-29T00:59:39;6.20;99.90
58339;DHT22;48278;52.704;6.536;2022-09-29T01:02:07;6.20;99.90
58339;DHT22;48278;52.704;6.536;2022-09-29T01:04:33;6.20;99.90
58339;DHT22;48278;52.704;6.536;2022-09-29T01:07:00;6.20;99.90
58339;DHT22;48278;52.704;6.536;2022-09-29T01:09:30;6.20;99.90
58339;DHT22;48278;52.704;6.536;2022-09-29T01:11:56;6.20;99.90
58339;DHT22;48278;52.704;6.536;2022-09-29T01:14:24;6.20;99.90
58339;DHT22;48278;52.704;6.536;2022-09-29T01:16:50;6.20;99.90
58339;DHT22;48278;52.704;6.536;2022-09-29T01:30:19;6.00;99.90
58339;DHT22;48278;52.704;6.536;2022-09-29T01:33:09;6.00;99.90
58339;DHT22;48278;52.704;6.536;2022-09-29T01:41:09;5.90;99.90
58339;DHT22;48278;52.704;6.536;2022-09-29T01:46:33;5.90;99.90
58339;DHT22;48278;52.704;6.536;2022-09-29T01:49:01;5.90;99.90
58339;DHT22;48278;52.704;6.536;2022-09-29T01:51:33;5.80;99.90
58339;DHT22;48278;52.704;6.536;2022-09-29T01:54:04;5.80;99.90
58339;DHT22;48278;52.704;6.536;2022-09-29T01:56:47;5.80;99.90
58339;DHT22;48278;52.704;6.536;2022-09-29T01:59:23;5.80;99.90
58339;DHT22;48278;52.704;6.536;2022-09-29T02:01:55;5.80;99.90
58339;DHT22;48278;52.704;6.536;2022-09-29T02:04:31;5.80;99.90
58339;DHT22;48278;52.704;6.536;2022-09-29T02:07:02;5.70;99.90
58339;DHT22;48278;52.704;6.536;2022-09-29T02:09:38;5.70;99.90
58339;DHT22;48278;52.704;6.536;2022-09-29T02:12:04;5.70;99.90
58339;DHT22;48278;52.704;6.536;2022-09-29T02:14:41;5.60;99.90
58339;DHT22;48278;52.704;6.536;2022-09-29T02:17:18;5.60;99.90
58339;DHT22;48278;52.704;6.536;2022-09-29T02:19:47;5.60;99.90
58339;DHT22;48278;52.704;6.536;2022-09-29T02:22:16;5.60;99.90
58339;DHT22;48278;52.704;6.536;2022-09-29T02:24:42;5.50;99.90
58339;DHT22;48278;52.704;6.536;2022-09-29T02:27:08;5.50;99.90
58339;DHT22;48278;52.704;6.536;2022-09-29T02:29:35;5.50;99.90
58339;DHT22;48278;52.704;6.536;2022-09-29T02:32:03;5.50;99.90
58339;DHT22;48278;52.704;6.536;2022-09-29T02:34:31;5.50;99.90
58339;DHT22;48278;52.704;6.536;2022-09-29T02:39:57;5.40;99.90
58339;DHT22;48278;52.704;6.536;2022-09-29T02:45:27;5.40;99.90
58339;DHT22;48278;52.704;6.536;2022-09-29T02:51:09;5.40;99.90
58339;DHT22;48278;52.704;6.536;2022-09-29T02:59:05;5.40;99.90
58339;DHT22;48278;52.704;6.536;2022-09-29T03:01:33;5.40;99.90
58339;DHT22;48278;52.704;6.536;2022-09-29T03:03:59;5.40;99.90
58339;DHT22;48278;52.704;6.536;2022-09-29T03:06:25;5.30;99.90
58339;DHT22;48278;52.704;6.536;2022-09-29T03:08:52;5.30;99.90
58339;DHT22;48278;52.704;6.536;2022-09-29T03:11:18;5.30;99.90
58339;DHT22;48278;52.704;6.536;2022-09-29T03:13:43;5.30;99.90
58339;DHT22;48278;52.704;6.536;2022-09-29T03:16:09;5.30;99.90
58339;DHT22;48278;52.704;6.536;2022-09-29T03:18:35;5.20;99.90
58339;DHT22;48278;52.704;6.536;2022-09-29T03:21:00;5.30;99.90
58339;DHT22;48278;52.704;6.536;2022-09-29T03:23:26;5.30;99.90
58339;DHT22;48278;52.704;6.536;2022-09-29T03:25:52;5.40;99.90
58339;DHT22;48278;52.704;6.536;2022-09-29T03:28:18;5.30;99.90
58339;DHT22;48278;52.704;6.536;2022-09-29T03:30:43;5.30;99.90
58339;DHT22;48278;52.704;6.536;2022-09-29T03:33:10;5.30;99.90
58339;DHT22;48278;52.704;6.536;2022-09-29T03:35:36;5.20;99.90
58339;DHT22;48278;52.704;6.536;2022-09-29T03:38:02;5.20;99.90
58339;DHT22;48278;52.704;6.536;2022-09-29T03:40:27;5.10;99.90
58339;DHT22;48278;52.704;6.536;2022-09-29T03:42:53;5.10;99.90
58339;DHT22;48278;52.704;6.536;2022-09-29T03:45:19;5.00;99.90
58339;DHT22;48278;52.704;6.536;2022-09-29T03:47:45;5.00;99.90
58339;DHT22;48278;52.704;6.536;2022-09-29T03:50:12;5.00;99.90
58339;DHT22;48278;52.704;6.536;2022-09-29T03:52:37;5.00;99.90
58339;DHT22;48278;52.704;6.536;2022-09-29T03:55:04;4.90;99.90
58339;DHT22;48278;52.704;6.536;2022-09-29T03:57:29;4.90;99.90
58339;DHT22;48278;52.704;6.536;2022-09-29T03:59:55;4.90;99.90
58339;DHT22;48278;52.704;6.536;2022-09-29T04:02:22;4.80;99.90
58339;DHT22;48278;52.704;6.536;2022-09-29T04:04:47;4.80;99.90
58339;DHT22;48278;52.704;6.536;2022-09-29T04:07:13;4.80;99.90
58339;DHT22;48278;52.704;6.536;2022-09-29T04:09:39;4.80;99.90
58339;DHT22;48278;52.704;6.536;2022-09-29T04:12:05;4.80;99.90
58339;DHT22;48278;52.704;6.536;2022-09-29T04:14:31;4.70;99.90
58339;DHT22;48278;52.704;6.536;2022-09-29T04:16:57;4.70;99.90
58339;DHT22;48278;52.704;6.536;2022-09-29T04:19:22;4.70;99.90
58339;DHT22;48278;52.704;6.536;2022-09-29T04:21:49;4.70;99.90
58339;DHT22;48278;52.704;6.536;2022-09-29T04:24:15;4.70;99.90
58339;DHT22;48278;52.704;6.536;2022-09-29T04:26:40;4.70;99.90
58339;DHT22;48278;52.704;6.536;2022-09-29T04:29:06;4.70;99.90
58339;DHT22;48278;52.704;6.536;2022-09-29T04:31:32;4.70;99.90
58339;DHT22;48278;52.704;6.536;2022-09-29T04:33:57;4.70;99.90
58339;DHT22;48278;52.704;6.536;2022-09-29T04:36:23;4.70;99.90
58339;DHT22;48278;52.704;6.536;2022-09-29T04:38:49;4.60;99.90
58339;DHT22;48278;52.704;6.536;2022-09-29T04:41:16;4.60;99.90
58339;DHT22;48278;52.704;6.536;2022-09-29T04:43:42;4.60;99.90
58339;DHT22;48278;52.704;6.536;2022-09-29T04:46:09;4.60;99.90
58339;DHT22;48278;52.704;6.536;2022-09-29T04:48:35;4.50;99.90
58339;DHT22;48278;52.704;6.536;2022-09-29T04:51:03;4.50;99.90
58339;DHT22;48278;52.704;6.536;2022-09-29T04:53:28;4.50;99.90
58339;DHT22;48278;52.704;6.536;2022-09-29T04:55:54;4.50;99.90
58339;DHT22;48278;52.704;6.536;2022-09-29T04:58:20;4.50;99.90
58339;DHT22;48278;52.704;6.536;2022-09-29T05:00:46;4.60;99.90
58339;DHT22;48278;52.704;6.536;2022-09-29T05:03:11;4.50;99.90
58339;DHT22;48278;52.704;6.536;2022-09-29T05:05:37;4.50;99.90
58339;DHT22;48278;52.704;6.536;2022-09-29T05:08:03;4.40;99.90
58339;DHT22;48278;52.704;6.536;2022-09-29T05:10:30;4.50;99.90
58339;DHT22;48278;52.704;6.536;2022-09-29T05:12:55;4.40;99.90
58339;DHT22;48278;52.704;6.536;2022-09-29T05:15:21;4.40;99.90
58339;DHT22;48278;52.704;6.536;2022-09-29T05:17:47;4.40;99.90
58339;DHT22;48278;52.704;6.536;2022-09-29T05:20:13;4.40;99.90
58339;DHT22;48278;52.704;6.536;2022-09-29T05:22:39;4.40;99.90
58339;DHT22;48278;52.704;6.536;2022-09-29T05:25:05;4.40;99.90
58339;DHT22;48278;52.704;6.536;2022-09-29T05:27:34;4.40;99.90
58339;DHT22;48278;52.704;6.536;2022-09-29T05:30:00;4.40;99.90
58339;DHT22;48278;52.704;6.536;2022-09-29T05:32:45;4.30;99.90
58339;DHT22;48278;52.704;6.536;2022-09-29T05:35:11;4.30;99.90
58339;DHT22;48278;52.704;6.536;2022-09-29T05:37:37;4.30;99.90
58339;DHT22;48278;52.704;6.536;2022-09-29T05:40:03;4.30;99.90
58339;DHT22;48278;52.704;6.536;2022-09-29T05:42:29;4.20;99.90
58339;DHT22;48278;52.704;6.536;2022-09-29T05:44:55;4.20;99.90
58339;DHT22;48278;52.704;6.536;2022-09-29T05:47:21;4.20;99.90
58339;DHT22;48278;52.704;6.536;2022-09-29T05:49:48;4.20;99.90
58339;DHT22;48278;52.704;6.536;2022-09-29T05:52:14;4.20;99.90
58339;DHT22;48278;52.704;6.536;2022-09-29T05:54:39;4.20;99.90
58339;DHT22;48278;52.704;6.536;2022-09-29T05:57:05;4.20;99.90
58339;DHT22;48278;52.704;6.536;2022-09-29T05:59:32;4.10;99.90
58339;DHT22;48278;52.704;6.536;2022-09-29T06:01:58;4.10;99.90
58339;DHT22;48278;52.704;6.536;2022-09-29T06:04:24;4.10;99.90
58339;DHT22;48278;52.704;6.536;2022-09-29T06:06:50;4.10;99.90
58339;DHT22;48278;52.704;6.536;2022-09-29T06:09:15;4.10;99.90
58339;DHT22;48278;52.704;6.536;2022-09-29T06:11:41;4.10;99.90
58339;DHT22;48278;52.704;6.536;2022-09-29T06:14:07;4.20;99.90
58339;DHT22;48278;52.704;6.536;2022-09-29T06:16:32;4.20;99.90
58339;DHT22;48278;52.704;6.536;2022-09-29T06:18:59;4.20;99.90
58339;DHT22;48278;52.704;6.536;2022-09-29T06:21:27;4.30;99.90
58339;DHT22;48278;52.704;6.536;2022-09-29T06:23:54;4.30;99.90
58339;DHT22;48278;52.704;6.536;2022-09-29T06:26:20;4.30;99.90
58339;DHT22;48278;52.704;6.536;2022-09-29T06:28:46;4.30;99.90
58339;DHT22;48278;52.704;6.536;2022-09-29T06:31:14;4.40;99.90
58339;DHT22;48278;52.704;6.536;2022-09-29T06:33:40;4.40;99.90
58339;DHT22;48278;52.704;6.536;2022-09-29T06:36:11;4.40;99.90
58339;DHT22;48278;52.704;6.536;2022-09-29T06:38:57;4.50;99.90
58339;DHT22;48278;52.704;6.536;2022-09-29T06:41:24;4.50;99.90
58339;DHT22;48278;52.704;6.536;2022-09-29T06:43:51;4.60;99.90
58339;DHT22;48278;52.704;6.536;2022-09-29T06:46:17;4.60;99.90
58339;DHT22;48278;52.704;6.536;2022-09-29T06:48:44;4.70;99.90
58339;DHT22;48278;52.704;6.536;2022-09-29T06:51:10;4.70;99.90
58339;DHT22;48278;52.704;6.536;2022-09-29T06:53:35;4.90;99.90
58339;DHT22;48278;52.704;6.536;2022-09-29T06:56:01;4.90;99.90
58339;DHT22;48278;52.704;6.536;2022-09-29T06:58:28;5.00;99.90
58339;DHT22;48278;52.704;6.536;2022-09-29T07:00:54;5.10;99.90
58339;DHT22;48278;52.704;6.536;2022-09-29T07:03:20;5.10;99.90
58339;DHT22;48278;52.704;6.536;2022-09-29T07:05:46;5.20;99.90
58339;DHT22;48278;52.704;6.536;2022-09-29T07:08:12;5.30;99.90
58339;DHT22;48278;52.704;6.536;2022-09-29T07:10:38;5.40;99.90
58339;DHT22;48278;52.704;6.536;2022-09-29T07:13:04;5.40;99.90
58339;DHT22;48278;52.704;6.536;2022-09-29T07:15:30;5.50;99.90
58339;DHT22;48278;52.704;6.536;2022-09-29T07:18:00;5.60;99.90
58339;DHT22;48278;52.704;6.536;2022-09-29T07:20:27;5.70;99.90
58339;DHT22;48278;52.704;6.536;2022-09-29T07:22:53;5.80;99.90
58339;DHT22;48278;52.704;6.536;2022-09-29T07:25:20;5.80;99.90
58339;DHT22;48278;52.704;6.536;2022-09-29T07:27:47;5.80;99.90
58339;DHT22;48278;52.704;6.536;2022-09-29T07:30:13;6.00;99.90
58339;DHT22;48278;52.704;6.536;2022-09-29T07:32:39;6.10;99.90
58339;DHT22;48278;52.704;6.536;2022-09-29T07:35:05;6.30;99.90
58339;DHT22;48278;52.704;6.536;2022-09-29T07:37:31;6.40;99.90
58339;DHT22;48278;52.704;6.536;2022-09-29T07:39:57;6.40;99.90
58339;DHT22;48278;52.704;6.536;2022-09-29T07:42:23;6.50;99.90
58339;DHT22;48278;52.704;6.536;2022-09-29T07:44:49;6.60;99.90
58339;DHT22;48278;52.704;6.536;2022-09-29T07:47:14;6.70;99.90
58339;DHT22;48278;52.704;6.536;2022-09-29T07:49:40;6.80;99.90
58339;DHT22;48278;52.704;6.536;2022-09-29T07:52:06;6.90;99.90
58339;DHT22;48278;52.704;6.536;2022-09-29T07:54:33;7.00;99.90
58339;DHT22;48278;52.704;6.536;2022-09-29T07:56:59;7.00;99.90
58339;DHT22;48278;52.704;6.536;2022-09-29T07:59:26;7.10;99.90
58339;DHT22;48278;52.704;6.536;2022-09-29T08:01:52;7.10;99.90
58339;DHT22;48278;52.704;6.536;2022-09-29T08:04:18;7.30;99.90
58339;DHT22;48278;52.704;6.536;2022-09-29T08:06:44;7.30;99.90
58339;DHT22;48278;52.704;6.536;2022-09-29T08:09:11;7.30;99.90
58339;DHT22;48278;52.704;6.536;2022-09-29T08:11:39;7.20;99.90
58339;DHT22;48278;52.704;6.536;2022-09-29T08:14:06;7.20;99.90
58339;DHT22;48278;52.704;6.536;2022-09-29T08:16:32;7.40;99.90
58339;DHT22;48278;52.704;6.536;2022-09-29T08:18:59;7.50;99.90
58339;DHT22;48278;52.704;6.536;2022-09-29T08:21:26;7.60;99.90
58339;DHT22;48278;52.704;6.536;2022-09-29T08:23:52;7.50;99.90
58339;DHT22;48278;52.704;6.536;2022-09-29T08:26:20;7.60;99.90
58339;DHT22;48278;52.704;6.536;2022-09-29T08:28:52;7.70;99.90
58339;DHT22;48278;52.704;6.536;2022-09-29T08:31:20;7.80;99.90
58339;DHT22;48278;52.704;6.536;2022-09-29T08:33:48;7.80;99.90
58339;DHT22;48278;52.704;6.536;2022-09-29T08:36:18;8.00;99.90
58339;DHT22;48278;52.704;6.536;2022-09-29T08:38:46;8.10;99.90
58339;DHT22;48278;52.704;6.536;2022-09-29T08:47:25;8.50;99.90
58339;DHT22;48278;52.704;6.536;2022-09-29T08:49:58;8.50;99.90
58339;DHT22;48278;52.704;6.536;2022-09-29T08:52:33;8.60;99.90
58339;DHT22;48278;52.704;6.536;2022-09-29T08:55:19;8.70;99.90
58339;DHT22;48278;52.704;6.536;2022-09-29T08:57:52;8.80;99.90
58339;DHT22;48278;52.704;6.536;2022-09-29T09:00:20;8.90;99.90
58339;DHT22;48278;52.704;6.536;2022-09-29T09:03:19;8.90;99.90
58339;DHT22;48278;52.704;6.536;2022-09-29T09:18:45;9.30;99.90
58339;DHT22;48278;52.704;6.536;2022-09-29T09:21:21;9.40;99.90
58339;DHT22;48278;52.704;6.536;2022-09-29T09:23:54;9.40;99.90
58339;DHT22;48278;52.704;6.536;2022-09-29T09:26:35;9.60;99.90
58339;DHT22;48278;52.704;6.536;2022-09-29T09:29:10;9.60;99.90
58339;DHT22;48278;52.704;6.536;2022-09-29T09:31:56;9.60;99.90
58339;DHT22;48278;52.704;6.536;2022-09-29T09:37:33;9.80;99.90
58339;DHT22;48278;52.704;6.536;2022-09-29T09:40:16;9.80;99.90
58339;DHT22;48278;52.704;6.536;2022-09-29T09:45:41;9.80;99.90
58339;DHT22;48278;52.704;6.536;2022-09-29T09:48:48;9.80;99.90
58339;DHT22;48278;52.704;6.536;2022-09-29T09:51:34;9.90;99.90
58339;DHT22;48278;52.704;6.536;2022-09-29T09:54:22;9.90;99.90
58339;DHT22;48278;52.704;6.536;2022-09-29T10:02:16;10.10;99.90
58339;DHT22;48278;52.704;6.536;2022-09-29T10:04:44;10.30;99.90
58339;DHT22;48278;52.704;6.536;2022-09-29T10:07:13;10.30;99.90
58339;DHT22;48278;52.704;6.536;2022-09-29T10:09:39;10.50;99.90
58339;DHT22;48278;52.704;6.536;2022-09-29T10:12:11;10.50;99.90
58339;DHT22;48278;52.704;6.536;2022-09-29T10:14:39;10.60;99.90
58339;DHT22;48278;52.704;6.536;2022-09-29T10:17:11;10.70;99.90
58339;DHT22;48278;52.704;6.536;2022-09-29T10:20:00;10.90;99.90
58339;DHT22;48278;52.704;6.536;2022-09-29T10:22:28;10.90;99.90
58339;DHT22;48278;52.704;6.536;2022-09-29T10:25:15;10.90;99.90
58339;DHT22;48278;52.704;6.536;2022-09-29T10:27:42;11.00;99.90
58339;DHT22;48278;52.704;6.536;2022-09-29T10:32:44;11.30;99.90
58339;DHT22;48278;52.704;6.536;2022-09-29T10:35:25;11.40;99.90
58339;DHT22;48278;52.704;6.536;2022-09-29T10:38:04;11.50;99.90
58339;DHT22;48278;52.704;6.536;2022-09-29T10:40:30;11.50;99.90
58339;DHT22;48278;52.704;6.536;2022-09-29T10:42:56;11.60;99.90
58339;DHT22;48278;52.704;6.536;2022-09-29T10:45:27;11.70;99.90
58339;DHT22;48278;52.704;6.536;2022-09-29T10:50:47;11.90;99.90
58339;DHT22;48278;52.704;6.536;2022-09-29T10:53:27;11.90;99.90
58339;DHT22;48278;52.704;6.536;2022-09-29T10:55:59;12.00;99.90
58339;DHT22;48278;52.704;6.536;2022-09-29T10:58:52;12.10;99.90
58339;DHT22;48278;52.704;6.536;2022-09-29T11:01:19;12.10;99.90
58339;DHT22;48278;52.704;6.536;2022-09-29T11:04:06;12.20;99.90
58339;DHT22;48278;52.704;6.536;2022-09-29T11:06:41;12.20;99.90
58339;DHT22;48278;52.704;6.536;2022-09-29T11:19:52;12.50;99.90
58339;DHT22;48278;52.704;6.536;2022-09-29T11:45:03;12.90;99.90
58339;DHT22;48278;52.704;6.536;2022-09-29T11:48:05;13.30;99.90
58339;DHT22;48278;52.704;6.536;2022-09-29T12:06:51;13.50;99.90
58339;DHT22;48278;52.704;6.536;2022-09-29T12:09:39;13.50;99.90
58339;DHT22;48278;52.704;6.536;2022-09-29T12:22:58;13.60;99.90
58339;DHT22;48278;52.704;6.536;2022-09-29T12:25:28;13.50;99.90
58339;DHT22;48278;52.704;6.536;2022-09-29T12:28:01;13.50;99.90
58339;DHT22;48278;52.704;6.536;2022-09-29T12:30:40;13.60;99.90
58339;DHT22;48278;52.704;6.536;2022-09-29T12:36:10;13.60;99.90
58339;DHT22;48278;52.704;6.536;2022-09-29T12:38:55;13.70;99.90
58339;DHT22;48278;52.704;6.536;2022-09-29T12:41:25;13.70;99.90
58339;DHT22;48278;52.704;6.536;2022-09-29T12:44:15;13.70;99.90
58339;DHT22;48278;52.704;6.536;2022-09-29T12:47:12;13.70;99.90
58339;DHT22;48278;52.704;6.536;2022-09-29T12:50:36;13.70;99.90
58339;DHT22;48278;52.704;6.536;2022-09-29T12:52:47;13.90;99.90
58339;DHT22;48278;52.704;6.536;2022-09-29T12:55:43;13.90;99.90
58339;DHT22;48278;52.704;6.536;2022-09-29T12:58:23;14.00;99.90
58339;DHT22;48278;52.704;6.536;2022-09-29T13:00:57;14.10;99.90
58339;DHT22;48278;52.704;6.536;2022-09-29T13:03:37;14.20;99.90
58339;DHT22;48278;52.704;6.536;2022-09-29T13:06:36;14.30;99.90
58339;DHT22;48278;52.704;6.536;2022-09-29T13:17:36;14.30;99.90
58339;DHT22;48278;52.704;6.536;2022-09-29T13:28:31;14.50;99.90
58339;DHT22;48278;52.704;6.536;2022-09-29T13:31:03;14.40;99.90
58339;DHT22;48278;52.704;6.536;2022-09-29T13:33:31;14.40;99.90
58339;DHT22;48278;52.704;6.536;2022-09-29T13:35:59;14.30;99.90
58339;DHT22;48278;52.704;6.536;2022-09-29T13:38:36;14.30;99.90
58339;DHT22;48278;52.704;6.536;2022-09-29T13:41:15;14.30;99.90
58339;DHT22;48278;52.704;6.536;2022-09-29T13:51:55;14.40;99.90
58339;DHT22;48278;52.704;6.536;2022-09-29T13:54:39;14.40;99.90
58339;DHT22;48278;52.704;6.536;2022-09-29T14:02:38;14.40;99.90
58339;DHT22;48278;52.704;6.536;2022-09-29T14:08:29;14.50;99.90
58339;DHT22;48278;52.704;6.536;2022-09-29T14:11:38;14.40;99.90
58339;DHT22;48278;52.704;6.536;2022-09-29T14:14:06;14.40;99.90
58339;DHT22;48278;52.704;6.536;2022-09-29T14:20:30;14.50;99.90
58339;DHT22;48278;52.704;6.536;2022-09-29T14:28:15;14.50;99.90
58339;DHT22;48278;52.704;6.536;2022-09-29T14:31:01;14.50;99.90
58339;DHT22;48278;52.704;6.536;2022-09-29T14:33:41;14.50;99.90
58339;DHT22;48278;52.704;6.536;2022-09-29T14:36:13;14.60;99.90
58339;DHT22;48278;52.704;6.536;2022-09-29T14:38:48;14.60;99.90
58339;DHT22;48278;52.704;6.536;2022-09-29T14:41:21;14.60;99.90
58339;DHT22;48278;52.704;6.536;2022-09-29T14:50:25;14.60;99.90
58339;DHT22;48278;52.704;6.536;2022-09-29T14:56:22;14.50;99.90
58339;DHT22;48278;52.704;6.536;2022-09-29T15:04:58;14.40;99.90
58339;DHT22;48278;52.704;6.536;2022-09-29T15:07:26;14.40;99.90
58339;DHT22;48278;52.704;6.536;2022-09-29T15:09:57;14.40;99.90
58339;DHT22;48278;52.704;6.536;2022-09-29T15:12:28;14.40;99.90
58339;DHT22;48278;52.704;6.536;2022-09-29T15:14:55;14.40;99.90
58339;DHT22;48278;52.704;6.536;2022-09-29T15:25:31;14.30;99.90
58339;DHT22;48278;52.704;6.536;2022-09-29T15:28:05;14.40;99.90
58339;DHT22;48278;52.704;6.536;2022-09-29T15:30:36;14.40;99.90
58339;DHT22;48278;52.704;6.536;2022-09-29T15:33:23;14.40;99.90
58339;DHT22;48278;52.704;6.536;2022-09-29T15:36:05;14.40;99.90
58339;DHT22;48278;52.704;6.536;2022-09-29T15:41:03;14.30;99.90
58339;DHT22;48278;52.704;6.536;2022-09-29T15:43:37;14.30;99.90
58339;DHT22;48278;52.704;6.536;2022-09-29T15:49:15;14.30;99.90
58339;DHT22;48278;52.704;6.536;2022-09-29T15:51:55;14.30;99.90
58339;DHT22;48278;52.704;6.536;2022-09-29T15:54:23;14.30;99.90
58339;DHT22;48278;52.704;6.536;2022-09-29T15:56:49;14.30;99.90
58339;DHT22;48278;52.704;6.536;2022-09-29T15:59:41;14.30;99.90
58339;DHT22;48278;52.704;6.536;2022-09-29T16:04:42;14.30;99.90
58339;DHT22;48278;52.704;6.536;2022-09-29T16:07:26;14.30;99.90
58339;DHT22;48278;52.704;6.536;2022-09-29T16:10:16;14.30;99.90
58339;DHT22;48278;52.704;6.536;2022-09-29T16:13:04;14.20;99.90
58339;DHT22;48278;52.704;6.536;2022-09-29T16:15:42;14.20;99.90
58339;DHT22;48278;52.704;6.536;2022-09-29T16:18:18;14.00;99.90
58339;DHT22;48278;52.704;6.536;2022-09-29T16:20:45;13.60;99.90
58339;DHT22;48278;52.704;6.536;2022-09-29T16:23:35;13.60;99.90
58339;DHT22;48278;52.704;6.536;2022-09-29T16:28:38;13.40;99.90
58339;DHT22;48278;52.704;6.536;2022-09-29T16:31:17;13.10;99.90
58339;DHT22;48278;52.704;6.536;2022-09-29T16:33:45;13.00;99.90
58339;DHT22;48278;52.704;6.536;2022-09-29T16:36:18;12.90;99.90
58339;DHT22;48278;52.704;6.536;2022-09-29T16:38:47;12.80;99.90
58339;DHT22;48278;52.704;6.536;2022-09-29T16:41:29;12.70;99.90
58339;DHT22;48278;52.704;6.536;2022-09-29T16:46:32;12.50;99.90
58339;DHT22;48278;52.704;6.536;2022-09-29T16:48:59;12.50;99.90
58339;DHT22;48278;52.704;6.536;2022-09-29T16:51:25;12.30;99.90
58339;DHT22;48278;52.704;6.536;2022-09-29T16:53:57;12.10;99.90
58339;DHT22;48278;52.704;6.536;2022-09-29T16:56:29;12.10;99.90
58339;DHT22;48278;52.704;6.536;2022-09-29T16:59:10;11.90;99.90
58339;DHT22;48278;52.704;6.536;2022-09-29T17:01:39;11.70;99.90
58339;DHT22;48278;52.704;6.536;2022-09-29T17:04:06;11.50;99.90
58339;DHT22;48278;52.704;6.536;2022-09-29T17:06:32;11.40;99.90
58339;DHT22;48278;52.704;6.536;2022-09-29T17:08:58;11.30;99.90
58339;DHT22;48278;52.704;6.536;2022-09-29T17:11:25;11.20;99.90
58339;DHT22;48278;52.704;6.536;2022-09-29T17:13:52;11.10;99.90
58339;DHT22;48278;52.704;6.536;2022-09-29T17:16:21;11.10;99.90
58339;DHT22;48278;52.704;6.536;2022-09-29T17:18:51;11.10;99.90
58339;DHT22;48278;52.704;6.536;2022-09-29T17:21:18;11.10;99.90
58339;DHT22;48278;52.704;6.536;2022-09-29T17:23:44;11.10;99.90
58339;DHT22;48278;52.704;6.536;2022-09-29T17:26:51;11.10;99.90
58339;DHT22;48278;52.704;6.536;2022-09-29T17:29:29;11.00;99.90
58339;DHT22;48278;52.704;6.536;2022-09-29T17:31:55;11.00;99.90
58339;DHT22;48278;52.704;6.536;2022-09-29T17:34:21;11.00;99.90
58339;DHT22;48278;52.704;6.536;2022-09-29T17:36:57;11.00;99.90
58339;DHT22;48278;52.704;6.536;2022-09-29T17:39:26;11.00;99.90
58339;DHT22;48278;52.704;6.536;2022-09-29T17:41:58;11.00;99.90
58339;DHT22;48278;52.704;6.536;2022-09-29T17:44:25;11.00;99.90
58339;DHT22;48278;52.704;6.536;2022-09-29T17:46:54;11.00;99.90
58339;DHT22;48278;52.704;6.536;2022-09-29T17:49:19;11.00;99.90
58339;DHT22;48278;52.704;6.536;2022-09-29T17:51:45;11.00;99.90
58339;DHT22;48278;52.704;6.536;2022-09-29T17:54:11;11.00;99.90
58339;DHT22;48278;52.704;6.536;2022-09-29T17:56:41;11.10;99.90
58339;DHT22;48278;52.704;6.536;2022-09-29T17:59:09;11.10;99.90
58339;DHT22;48278;52.704;6.536;2022-09-29T18:01:36;11.00;99.90
58339;DHT22;48278;52.704;6.536;2022-09-29T18:04:05;11.00;99.90
58339;DHT22;48278;52.704;6.536;2022-09-29T18:06:33;11.00;99.90
58339;DHT22;48278;52.704;6.536;2022-09-29T18:09:11;11.00;99.90
58339;DHT22;48278;52.704;6.536;2022-09-29T18:11:37;11.00;99.90
58339;DHT22;48278;52.704;6.536;2022-09-29T18:14:03;11.00;99.90
58339;DHT22;48278;52.704;6.536;2022-09-29T18:16:29;11.00;99.90
58339;DHT22;48278;52.704;6.536;2022-09-29T18:18:55;11.00;99.90
58339;DHT22;48278;52.704;6.536;2022-09-29T18:21:22;11.00;99.90
58339;DHT22;48278;52.704;6.536;2022-09-29T18:23:48;11.00;99.90
58339;DHT22;48278;52.704;6.536;2022-09-29T18:26:14;11.00;99.90
58339;DHT22;48278;52.704;6.536;2022-09-29T18:28:41;11.00;99.90
58339;DHT22;48278;52.704;6.536;2022-09-29T18:31:17;11.00;99.90
58339;DHT22;48278;52.704;6.536;2022-09-29T18:33:44;11.00;99.90
58339;DHT22;48278;52.704;6.536;2022-09-29T18:36:10;11.00;99.90
58339;DHT22;48278;52.704;6.536;2022-09-29T18:38:36;10.90;99.90
58339;DHT22;48278;52.704;6.536;2022-09-29T18:41:02;11.00;99.90
58339;DHT22;48278;52.704;6.536;2022-09-29T18:43:28;10.90;99.90
58339;DHT22;48278;52.704;6.536;2022-09-29T18:45:57;10.90;99.90
58339;DHT22;48278;52.704;6.536;2022-09-29T18:48:23;11.00;99.90
58339;DHT22;48278;52.704;6.536;2022-09-29T18:50:50;11.00;99.90
58339;DHT22;48278;52.704;6.536;2022-09-29T18:53:17;11.00;99.90
58339;DHT22;48278;52.704;6.536;2022-09-29T18:55:44;10.90;99.90
58339;DHT22;48278;52.704;6.536;2022-09-29T18:58:15;10.90;99.90
58339;DHT22;48278;52.704;6.536;2022-09-29T19:00:47;11.00;99.90
58339;DHT22;48278;52.704;6.536;2022-09-29T19:03:15;10.90;99.90
58339;DHT22;48278;52.704;6.536;2022-09-29T19:05:42;10.90;99.90
58339;DHT22;48278;52.704;6.536;2022-09-29T19:08:10;11.00;99.90
58339;DHT22;48278;52.704;6.536;2022-09-29T19:10:36;11.00;99.90
58339;DHT22;48278;52.704;6.536;2022-09-29T19:13:05;11.00;99.90
58339;DHT22;48278;52.704;6.536;2022-09-29T19:15:35;11.10;99.90
58339;DHT22;48278;52.704;6.536;2022-09-29T19:18:03;11.10;99.90
58339;DHT22;48278;52.704;6.536;2022-09-29T19:20:30;11.10;99.90
58339;DHT22;48278;52.704;6.536;2022-09-29T19:22:56;11.10;99.90
58339;DHT22;48278;52.704;6.536;2022-09-29T19:25:32;11.00;99.90
58339;DHT22;48278;52.704;6.536;2022-09-29T19:27:58;11.00;99.90
58339;DHT22;48278;52.704;6.536;2022-09-29T19:30:26;11.00;99.90
58339;DHT22;48278;52.704;6.536;2022-09-29T19:32:53;11.00;99.90
58339;DHT22;48278;52.704;6.536;2022-09-29T19:35:20;11.00;99.90